Time,TemperatureF,DewpointF,PressureIn,WindDirection,WindDirectionDegrees,WindSpeedMPH,WindSpeedGustMPH,Humidity,HourlyPrecipIn,Conditions,Clouds,dailyrainin,SoftwareType,DateUTC
2013-03-29 00:00:00,38.2,38.2,30.27,SW,226,0.0,1.0,100,0.00,,,0.00,WeatherDisplay:10.37,2013-03-29 04:00:00,
2013-03-29 00:23:00,37.3,37.3,30.27,SW,226,0.0,0.0,100,0.00,,,0.00,WeatherDisplay:10.37,2013-03-29 04:23:00,
2013-03-29 01:00:00,35.3,35.3,30.28,SW,225,0.0,0.0,100,0.00,,,0.00,WeatherDisplay:10.37,2013-03-29 05:00:00,
2013-03-29 02:00:00,33.2,33.2,30.28,SW,225,0.0,0.0,100,0.00,,,0.00,WeatherDisplay:10.37,2013-03-29 06:00:00,
2013-03-29 03:00:00,31.0,31.0,30.27,SW,226,0.0,0.0,100,0.00,,,0.00,WeatherDisplay:10.37,2013-03-29 07:00:00,
2013-03-29 04:00:00,29.6,29.6,30.27,SW,226,0.0,0.0,100,0.00,,,0.00,WeatherDisplay:10.37,2013-03-29 08:00:00,
2013-03-29 05:00:00,28.7,28.7,30.28,SW,226,0.0,0.0,100,0.00,,,0.00,WeatherDisplay:10.37,2013-03-29 09:00:00,
2013-03-29 06:00:00,28.1,28.1,30.29,SW,225,0.0,0.0,100,0.00,,,0.00,WeatherDisplay:10.37,2013-03-29 10:00:00,
2013-03-29 07:00:00,27.4,27.4,30.31,SW,225,0.0,0.0,100,0.00,,,0.00,WeatherDisplay:10.37,2013-03-29 11:00:00,
2013-03-29 08:00:00,27.8,27.8,30.33,SW,225,0.0,0.0,100,0.00,,,0.00,WeatherDisplay:10.37,2013-03-29 12:00:00,
2013-03-29 09:00:00,34.8,34.8,30.33,WNW,283,0.0,3.0,100,0.00,,,0.00,WeatherDisplay:10.37,2013-03-29 13:00:00,
2013-03-29 10:00:00,47.3,47.3,30.32,NNW,331,0.0,5.0,100,0.00,CLR,,0.00,WeatherDisplay:10.37,2013-03-29 14:00:00,
2013-03-29 11:00:00,54.7,54.7,30.30,West,281,2.0,8.0,100,0.00,CLR,,0.00,WeatherDisplay:10.37,2013-03-29 15:00:00,
2013-03-29 12:00:00,56.6,56.6,30.28,NNW,327,2.0,9.0,100,0.00,CLR,,0.00,WeatherDisplay:10.37,2013-03-29 16:00:00,
2013-03-29 13:00:00,58.5,58.5,30.26,NNW,343,1.0,9.0,100,0.00,CLR,,0.00,WeatherDisplay:10.37,2013-03-29 17:00:00,
2013-03-29 14:00:00,58.7,58.7,30.23,North,2,1.0,6.0,100,0.00,CLR,,0.00,WeatherDisplay:10.37,2013-03-29 18:00:00,
2013-03-29 15:00:00,60.2,60.2,30.19,NW,309,1.0,9.0,100,0.00,CLR,,0.00,WeatherDisplay:10.37,2013-03-29 19:00:00,
2013-03-29 16:00:00,60.2,60.2,30.17,NW,317,1.0,10.0,100,0.00,CLR,,0.00,WeatherDisplay:10.37,2013-03-29 20:00:00,
2013-03-29 17:00:00,59.3,35.0,30.17,West,271,2.0,13.0,40,0.00,CLR,,0.00,WeatherDisplay:10.37,2013-03-29 21:00:00,
2013-03-29 18:00:00,57.7,57.7,30.16,WNW,282,1.0,14.0,100,0.00,CLR,,0.00,WeatherDisplay:10.37,2013-03-29 22:00:00,
2013-03-29 19:00:00,55.8,7.2,30.16,SW,234,0.0,12.0,14,0.00,CLR,,0.00,WeatherDisplay:10.37,2013-03-29 23:00:00,
2013-03-29 20:00:00,49.7,18.7,30.17,WNW,283,0.0,4.0,29,0.00,CLR,,0.00,WeatherDisplay:10.37,2013-03-30 00:00:00,
2013-03-29 21:00:00,44.7,7.1,30.18,WNW,283,0.0,0.0,21,0.00,CLR,,0.00,WeatherDisplay:10.37,2013-03-30 01:00:00,
2013-03-29 22:00:00,41.3,12.2,30.18,WNW,283,0.0,0.0,30,0.00,CLR,,0.00,WeatherDisplay:10.37,2013-03-30 02:00:00,
2013-03-29 23:00:00,39.4,39.4,30.19,WNW,283,0.0,0.0,100,0.00,,,0.00,WeatherDisplay:10.37,2013-03-30 03:00:00,